Promitheas — SYIJ — position and weather

sailwx.info

Track history (hours):
 
Tides and Currents Weather Stations Pressure Air Temp Water Temp Dewpoint Dewpoint Depression Visibility Wind Speed Wind Dir Waves Ship Positions

Promitheas

Last reported at 2015-Jul-24 03:17 UTC. Time now 2015-Jul-28 19:42 UTC.
Position N 36°51' E 016°09'.

Length 249 m; draft 14.2 m.

Type: Tanker. MMSI: 240547000.

Date/timePositionNaut miles runAvg speedWind from/ knotsBaromVisibWave heightAir tempDewpointWater temp
2015-Jul-24 03:17N 36°51' E 016°09'  
2015-Jul-21 15:32N 31°49' E 028°02'2411.9
2015-Jul-21 13:31N 31°38' E 028°28'1211.7
2015-Jul-21 12:27N 31°33' E 028°41'2311.7
2015-Jul-21 10:30N 31°22' E 029°04'2211.2
2015-Jul-21 08:33N 31°13' E 029°27'1110.8
2015-Jul-21 07:32N 31°08' E 029°39'42 1.4
2015-Jul-20 02:30N 31°22' E 028°53'1010.9
2015-Jul-20 01:33N 31°26' E 028°42'1110.8
2015-Jul-20 00:33N 31°30' E 028°30'1210.7
2015-Jul-19 23:24N 31°35' E 028°17'910.6
2015-Jul-19 22:33N 31°38' E 028°07'1210.6
2015-Jul-19 21:26N 31°42' E 027°54'910.5
2015-Jul-19 20:33N 31°45' E 027°44'1010.3
2015-Jul-19 19:33N 31°49' E 027°33'50210.4
2015-Jul-17 19:21N 34°48' E 018°11'8 9.9
2015-Jul-17 18:33N 34°51' E 018°02'10 9.9
2015-Jul-17 17:33N 34°54' E 017°51'2510.2
2015-Jul-17 15:06N 35°02' E 017°22'610.2
2015-Jul-17 14:32N 35°04' E 017°15'1111.1
2015-Jul-17 13:32N 35°06' E 017°02'2 2.1
2015-Jul-17 12:33N 35°07' E 016°60'1 0.3
2015-Jul-17 09:24N 35°08' E 016°60'0 0.4
2015-Jul-17 08:33N 35°08' E 016°60'1 0.5
2015-Jul-17 07:25N 35°09' E 016°60'12 5.6
2015-Jul-17 05:14N 35°14' E 016°46'710.8
2015-Jul-17 04:33N 35°17' E 016°38'1110.9
2015-Jul-17 03:33N 35°21' E 016°25'1110.6
2015-Jul-17 02:33N 35°25' E 016°13'1010.4
2015-Jul-17 01:33N 35°29' E 016°01'3210.5
2015-Jul-16 22:33N 35°40' E 015°25'1110.7
2015-Jul-16 21:29N 35°44' E 015°12'1010.7
2015-Jul-16 20:33N 35°47' E 015°00'1111.0
2015-Jul-16 19:33N 35°51' E 014°48'1 0.1
2015-Jul-16 09:30N 35°52' E 014°46'0 0.1
2015-Jul-16 08:27N 35°52' E 014°46'4 4.6
2015-Jul-16 07:33N 35°54' E 014°42'1110.5
2015-Jul-16 06:33N 36°03' E 014°34'1010.4
2015-Jul-16 05:33N 36°10' E 014°24'1010.5
2015-Jul-16 04:33N 36°17' E 014°15'1110.8
2015-Jul-16 03:33N 36°21' E 014°03'1111.0
2015-Jul-16 02:33N 36°25' E 013°50'1110.9
2015-Jul-16 01:33N 36°29' E 013°37'1110.8
2015-Jul-16 00:33N 36°33' E 013°25'1110.6
2015-Jul-15 23:33N 36°37' E 013°13'1110.6
2015-Jul-15 22:33N 36°41' E 013°01'1010.3
2015-Jul-15 21:33N 36°45' E 012°49'1111.3
2015-Jul-15 20:33N 36°49' E 012°35'1111.2
2015-Jul-15 19:33N 36°53' E 012°22'1110.9
2015-Jul-15 18:33N 36°57' E 012°10'1010.5
2015-Jul-15 17:33N 37°01' E 011°58'1010.1
2015-Jul-15 16:33N 37°06' E 011°46'5210.5
2015-Jul-15 11:33N 37°28' E 010°47'1411.4
2015-Jul-15 10:18N 37°31' E 010°29'911.6
2015-Jul-15 09:30N 37°31' E 010°17'1310.8
2015-Jul-15 08:19N 37°29' E 010°02'14 1.3
2015-Jul-14 21:33N 37°16' E 009°53'0 0.0
2015-Jul-14 20:11N 37°16' E 009°53'0 0.0
2015-Jul-14 18:33N 37°16' E 009°53'0 0.0
2015-Jul-14 17:33N 37°16' E 009°53'0 0.0
2015-Jul-14 16:33N 37°16' E 009°53'  
Track history (hours):
 
Tides and Currents Weather Stations Pressure Air Temp Water Temp Dewpoint Dewpoint Depression Visibility Wind Speed Wind Dir Waves Ship Positions

Promitheas

Last reported at 2015-Jul-24 03:17 UTC. Time now 2015-Jul-28 19:42 UTC.
Position N 36°51' E 016°09'.

Length 249 m; draft 14.2 m.

Type: Tanker. MMSI: 240547000.

Date/timePositionNaut miles runAvg speedWind from/ knotsBaromVisibWave heightAir tempDewpointWater temp
2015-Jul-24 03:17N 36°51' E 016°09'  
2015-Jul-21 15:32N 31°49' E 028°02'2411.9
2015-Jul-21 13:31N 31°38' E 028°28'1211.7
2015-Jul-21 12:27N 31°33' E 028°41'2311.7
2015-Jul-21 10:30N 31°22' E 029°04'2211.2
2015-Jul-21 08:33N 31°13' E 029°27'1110.8
2015-Jul-21 07:32N 31°08' E 029°39'42 1.4
2015-Jul-20 02:30N 31°22' E 028°53'1010.9
2015-Jul-20 01:33N 31°26' E 028°42'1110.8
2015-Jul-20 00:33N 31°30' E 028°30'1210.7
2015-Jul-19 23:24N 31°35' E 028°17'910.6
2015-Jul-19 22:33N 31°38' E 028°07'1210.6
2015-Jul-19 21:26N 31°42' E 027°54'910.5
2015-Jul-19 20:33N 31°45' E 027°44'1010.3
2015-Jul-19 19:33N 31°49' E 027°33'50210.4
2015-Jul-17 19:21N 34°48' E 018°11'8 9.9
2015-Jul-17 18:33N 34°51' E 018°02'10 9.9
2015-Jul-17 17:33N 34°54' E 017°51'2510.2
2015-Jul-17 15:06N 35°02' E 017°22'610.2
2015-Jul-17 14:32N 35°04' E 017°15'1111.1
2015-Jul-17 13:32N 35°06' E 017°02'2 2.1
2015-Jul-17 12:33N 35°07' E 016°60'1 0.3
2015-Jul-17 09:24N 35°08' E 016°60'0 0.4
2015-Jul-17 08:33N 35°08' E 016°60'1 0.5
2015-Jul-17 07:25N 35°09' E 016°60'12 5.6
2015-Jul-17 05:14N 35°14' E 016°46'710.8
2015-Jul-17 04:33N 35°17' E 016°38'1110.9
2015-Jul-17 03:33N 35°21' E 016°25'1110.6
2015-Jul-17 02:33N 35°25' E 016°13'1010.4
2015-Jul-17 01:33N 35°29' E 016°01'3210.5
2015-Jul-16 22:33N 35°40' E 015°25'1110.7
2015-Jul-16 21:29N 35°44' E 015°12'1010.7
2015-Jul-16 20:33N 35°47' E 015°00'1111.0
2015-Jul-16 19:33N 35°51' E 014°48'1 0.1
2015-Jul-16 09:30N 35°52' E 014°46'0 0.1
2015-Jul-16 08:27N 35°52' E 014°46'4 4.6
2015-Jul-16 07:33N 35°54' E 014°42'1110.5
2015-Jul-16 06:33N 36°03' E 014°34'1010.4
2015-Jul-16 05:33N 36°10' E 014°24'1010.5
2015-Jul-16 04:33N 36°17' E 014°15'1110.8
2015-Jul-16 03:33N 36°21' E 014°03'1111.0
2015-Jul-16 02:33N 36°25' E 013°50'1110.9
2015-Jul-16 01:33N 36°29' E 013°37'1110.8
2015-Jul-16 00:33N 36°33' E 013°25'1110.6
2015-Jul-15 23:33N 36°37' E 013°13'1110.6
2015-Jul-15 22:33N 36°41' E 013°01'1010.3
2015-Jul-15 21:33N 36°45' E 012°49'1111.3
2015-Jul-15 20:33N 36°49' E 012°35'1111.2
2015-Jul-15 19:33N 36°53' E 012°22'1110.9
2015-Jul-15 18:33N 36°57' E 012°10'1010.5
2015-Jul-15 17:33N 37°01' E 011°58'1010.1
2015-Jul-15 16:33N 37°06' E 011°46'5210.5
2015-Jul-15 11:33N 37°28' E 010°47'1411.4
2015-Jul-15 10:18N 37°31' E 010°29'911.6
2015-Jul-15 09:30N 37°31' E 010°17'1310.8
2015-Jul-15 08:19N 37°29' E 010°02'14 1.3
2015-Jul-14 21:33N 37°16' E 009°53'0 0.0
2015-Jul-14 20:11N 37°16' E 009°53'0 0.0
2015-Jul-14 18:33N 37°16' E 009°53'0 0.0
2015-Jul-14 17:33N 37°16' E 009°53'0 0.0
2015-Jul-14 16:33N 37°16' E 009°53'  

Dump ship's entire track history